Time;durP1;ratioP1;P1;durP2;ratioP2;P2;SDS_P1;SDS_P2;PMS_P1;PMS_P2;Temp;Humidity;BMP_temperature;BMP_pressure;BME280_temperature;BME280_humidity;BME280_pressure;Samples;Min_cycle;Max_cycle;Signal;HPM_P1;HPM_P2
2023/06/19 00:01:44;;;;;;;27.90;23.88;;;16.90;99.90;;;;;;5006083;28;20054;-58
2023/06/19 00:04:11;;;;;;;28.15;22.85;;;16.80;99.90;;;;;;5006587;28;20498;-58
2023/06/19 00:06:38;;;;;;;29.95;24.40;;;16.80;99.90;;;;;;5005051;28;20493;-58
2023/06/19 00:09:06;;;;;;;28.70;22.55;;;16.80;99.90;;;;;;5006872;28;20509;-59
2023/06/19 00:11:33;;;;;;;30.83;24.63;;;16.80;99.90;;;;;;5006450;28;20057;-58
2023/06/19 00:14:00;;;;;;;28.67;22.00;;;16.80;99.90;;;;;;5005168;28;20497;-59
2023/06/19 00:16:27;;;;;;;24.63;21.17;;;16.80;99.90;;;;;;5006903;28;20108;-59
2023/06/19 00:18:55;;;;;;;28.27;20.38;;;16.90;99.90;;;;;;5006443;28;20132;-58
2023/06/19 00:21:24;;;;;;;25.20;21.13;;;16.90;99.90;;;;;;5006537;28;20053;-59
2023/06/19 00:23:51;;;;;;;28.17;22.15;;;16.90;99.90;;;;;;5002132;28;20038;-60
2023/06/19 00:26:22;;;;;;;30.33;20.98;;;16.90;99.90;;;;;;5004042;28;20061;-59
2023/06/19 00:28:49;;;;;;;27.35;20.65;;;16.80;99.90;;;;;;5002599;28;20046;-59
2023/06/19 00:31:16;;;;;;;28.67;21.15;;;16.80;99.90;;;;;;5005972;28;20116;-58
2023/06/19 00:33:45;;;;;;;27.95;19.95;;;16.80;99.90;;;;;;5005758;28;20078;-59
2023/06/19 00:36:13;;;;;;;25.02;20.88;;;16.90;99.90;;;;;;5006020;28;20054;-59
2023/06/19 00:38:40;;;;;;;28.58;21.50;;;16.90;99.90;;;;;;5004635;28;20069;-58
2023/06/19 00:41:07;;;;;;;27.92;22.15;;;16.90;99.90;;;;;;5005569;28;20054;-59
2023/06/19 00:43:34;;;;;;;28.48;21.58;;;16.90;99.90;;;;;;5007998;28;20049;-59
2023/06/19 00:46:02;;;;;;;28.25;20.45;;;16.90;99.90;;;;;;5005690;28;20054;-57
2023/06/19 00:48:30;;;;;;;27.00;21.33;;;16.90;99.90;;;;;;4661040;28;9999780;-61
2023/06/19 00:50:56;;;;;;;23.98;19.83;;;17.00;99.90;;;;;;5016269;28;20054;-57
2023/06/19 00:53:23;;;;;;;27.17;20.83;;;17.00;99.90;;;;;;5019496;28;20050;-58
2023/06/19 00:55:54;;;;;;;26.23;19.70;;;17.00;99.90;;;;;;5017479;28;20050;-57
2023/06/19 00:58:21;;;;;;;31.83;21.13;;;17.00;99.90;;;;;;5015521;28;20049;-58
2023/06/19 01:00:51;;;;;;;25.70;19.83;;;17.00;99.90;;;;;;5000747;28;20058;-58
2023/06/19 01:03:35;;;;;;;27.20;21.98;;;17.00;99.90;;;;;;5009812;28;20509;-57
2023/06/19 01:06:05;;;;;;;26.63;20.30;;;17.00;99.90;;;;;;5009823;28;20050;-57
2023/06/19 01:08:55;;;;;;;31.67;20.52;;;17.00;99.90;;;;;;4997071;28;20077;-58
2023/06/19 01:11:24;;;;;;;25.02;19.92;;;16.90;99.90;;;;;;5002473;28;20133;-55
2023/06/19 01:13:57;;;;;;;29.17;20.38;;;16.90;99.90;;;;;;5014993;28;20057;-57
2023/06/19 01:16:25;;;;;;;25.77;19.30;;;16.90;99.90;;;;;;4992547;28;20111;-56
2023/06/19 01:18:52;;;;;;;29.67;19.27;;;17.00;99.90;;;;;;4974299;28;20081;-57
2023/06/19 01:21:19;;;;;;;28.60;20.30;;;17.00;99.90;;;;;;5009006;28;20069;-57
2023/06/19 01:23:46;;;;;;;29.60;19.58;;;17.00;99.90;;;;;;5008996;28;20544;-55
2023/06/19 01:26:14;;;;;;;25.92;19.23;;;17.10;99.90;;;;;;4998792;28;20401;-57
2023/06/19 01:28:42;;;;;;;23.48;18.77;;;17.10;99.90;;;;;;5009549;28;20046;-59
2023/06/19 01:31:25;;;;;;;24.58;17.90;;;17.10;99.90;;;;;;5009041;28;20046;-58
2023/06/19 01:33:52;;;;;;;27.17;18.30;;;17.20;99.90;;;;;;4996156;28;20705;-59
2023/06/19 01:36:19;;;;;;;25.23;17.73;;;17.20;99.90;;;;;;5008141;28;20072;-57
2023/06/19 01:38:46;;;;;;;27.63;19.35;;;17.20;99.90;;;;;;5008145;28;20046;-56
2023/06/19 01:41:12;;;;;;;25.52;17.65;;;17.10;99.90;;;;;;5002192;28;20044;-56
2023/06/19 01:43:39;;;;;;;25.33;17.83;;;17.10;99.90;;;;;;4976356;28;20054;-57
2023/06/19 01:46:06;;;;;;;24.70;17.75;;;17.10;99.90;;;;;;5018310;28;20409;-57
2023/06/19 01:48:35;;;;;;;25.25;17.35;;;17.10;99.90;;;;;;5013883;28;20570;-57
2023/06/19 01:51:03;;;;;;;27.55;16.88;;;17.10;99.90;;;;;;5008585;28;20177;-58
2023/06/19 01:53:31;;;;;;;24.25;18.75;;;17.10;99.90;;;;;;4998805;28;20141;-61
2023/06/19 01:55:58;;;;;;;23.27;17.67;;;17.10;99.90;;;;;;5008486;28;20505;-55
2023/06/19 01:58:25;;;;;;;20.13;15.93;;;17.10;99.90;;;;;;4998542;28;20064;-57
2023/06/19 02:00:52;;;;;;;25.02;17.63;;;17.00;99.90;;;;;;5008083;28;20108;-56
2023/06/19 02:03:19;;;;;;;23.67;17.50;;;17.00;99.90;;;;;;5016561;28;20057;-58
2023/06/19 02:05:46;;;;;;;31.17;18.20;;;16.90;99.90;;;;;;5008091;28;20046;-57
2023/06/19 02:08:13;;;;;;;23.10;18.42;;;16.90;99.90;;;;;;5018476;28;20103;-56
2023/06/19 02:10:39;;;;;;;27.70;18.40;;;16.90;99.90;;;;;;5007707;28;20042;-56
2023/06/19 02:13:06;;;;;;;26.52;17.85;;;16.80;99.90;;;;;;5008210;28;20049;-54
2023/06/19 02:15:33;;;;;;;22.95;16.38;;;16.80;99.90;;;;;;5007900;28;20045;-58
2023/06/19 02:18:00;;;;;;;22.90;16.85;;;16.80;99.90;;;;;;5008218;28;20042;-60
2023/06/19 02:20:27;;;;;;;23.90;16.65;;;16.80;99.90;;;;;;5007534;28;20050;-58
2023/06/19 02:22:54;;;;;;;24.90;17.75;;;16.70;99.90;;;;;;5008516;28;20095;-61
2023/06/19 02:25:20;;;;;;;26.00;17.98;;;16.70;99.90;;;;;;5007421;28;20053;-58
2023/06/19 02:27:47;;;;;;;21.80;16.67;;;16.70;99.90;;;;;;5004148;28;20050;-56
2023/06/19 02:30:14;;;;;;;25.58;18.85;;;16.60;99.90;;;;;;5007899;28;20264;-63
2023/06/19 02:32:41;;;;;;;24.00;16.00;;;16.60;99.90;;;;;;5007598;28;20485;-58
2023/06/19 02:35:10;;;;;;;21.90;16.33;;;16.60;99.90;;;;;;5007957;28;20049;-58
2023/06/19 02:37:37;;;;;;;22.08;16.80;;;16.50;99.90;;;;;;5007525;28;20045;-58
2023/06/19 02:40:05;;;;;;;28.23;17.73;;;16.50;99.90;;;;;;5008141;28;20053;-58
2023/06/19 02:42:31;;;;;;;19.33;14.85;;;16.40;99.90;;;;;;5007208;28;20050;-58
2023/06/19 02:45:03;;;;;;;23.25;15.35;;;16.40;99.90;;;;;;5007571;28;20046;-58
2023/06/19 02:47:31;;;;;;;18.02;14.02;;;16.30;99.90;;;;;;5007435;28;20133;-58
2023/06/19 02:50:02;;;;;;;17.85;13.48;;;16.30;99.90;;;;;;5007860;28;20054;-57
2023/06/19 02:52:30;;;;;;;17.13;12.32;;;16.30;99.90;;;;;;5006030;28;20049;-60
2023/06/19 02:54:56;;;;;;;15.80;11.73;;;16.20;99.90;;;;;;5006923;28;20100;-63
2023/06/19 02:57:23;;;;;;;16.02;12.50;;;16.20;99.90;;;;;;5007189;28;20065;-58
2023/06/19 02:59:50;;;;;;;15.95;11.75;;;16.20;99.90;;;;;;5014245;28;20061;-58
2023/06/19 03:02:17;;;;;;;13.70;11.13;;;16.20;99.90;;;;;;5007041;28;20050;-58
2023/06/19 03:04:44;;;;;;;15.80;10.27;;;16.20;99.90;;;;;;5015228;28;20306;-58
2023/06/19 03:07:13;;;;;;;18.58;10.93;;;16.20;99.90;;;;;;5006907;28;20085;-58
2023/06/19 03:09:40;;;;;;;15.50;10.57;;;16.10;99.90;;;;;;5015850;28;20085;-58
2023/06/19 03:12:08;;;;;;;11.10;9.23;;;16.10;99.90;;;;;;5006890;28;20100;-57
2023/06/19 03:14:35;;;;;;;13.85;9.98;;;16.10;99.90;;;;;;5006746;28;20500;-58
2023/06/19 03:17:02;;;;;;;14.13;9.63;;;16.10;99.90;;;;;;5006568;28;20056;-58
2023/06/19 03:19:29;;;;;;;13.52;9.40;;;16.10;99.90;;;;;;5007121;28;20049;-58
2023/06/19 03:21:56;;;;;;;13.90;8.98;;;16.10;99.90;;;;;;5006928;28;20141;-56
2023/06/19 03:24:23;;;;;;;14.07;10.13;;;16.10;99.90;;;;;;4973934;28;20104;-58
2023/06/19 03:26:50;;;;;;;19.50;10.75;;;16.10;99.90;;;;;;5001787;28;20056;-59
2023/06/19 03:29:17;;;;;;;18.00;12.07;;;16.10;99.90;;;;;;5007212;28;20108;-59
2023/06/19 03:31:43;;;;;;;18.60;12.50;;;16.10;99.90;;;;;;5006816;28;20077;-58
2023/06/19 03:34:11;;;;;;;16.35;12.05;;;16.10;99.90;;;;;;5006590;28;20048;-58
2023/06/19 03:36:38;;;;;;;18.17;12.40;;;16.00;99.90;;;;;;5006645;28;20054;-57
2023/06/19 03:39:05;;;;;;;20.90;13.38;;;16.10;99.90;;;;;;5006459;28;20497;-58
2023/06/19 03:41:32;;;;;;;17.33;13.02;;;16.10;99.90;;;;;;5006309;28;20054;-58
2023/06/19 03:43:59;;;;;;;21.00;13.75;;;16.10;99.90;;;;;;5007811;28;20069;-59
2023/06/19 03:46:26;;;;;;;19.90;14.02;;;16.10;99.90;;;;;;5006994;28;20085;-59
2023/06/19 03:48:53;;;;;;;18.65;13.27;;;16.20;99.90;;;;;;5008488;28;20050;-57
2023/06/19 03:51:20;;;;;;;19.38;14.20;;;16.10;99.90;;;;;;5007464;28;20622;-57
2023/06/19 03:53:47;;;;;;;22.92;15.40;;;16.00;99.90;;;;;;5006452;28;20046;-57
2023/06/19 03:56:14;;;;;;;25.27;16.88;;;16.00;99.90;;;;;;4998302;28;20058;-57
2023/06/19 03:58:40;;;;;;;25.63;16.65;;;16.00;99.90;;;;;;4992195;28;20046;-57
2023/06/19 04:01:07;;;;;;;24.52;16.00;;;16.00;99.90;;;;;;5007272;28;20049;-56
2023/06/19 04:03:34;;;;;;;24.83;19.00;;;16.00;99.90;;;;;;5011840;28;20049;-54
2023/06/19 04:06:02;;;;;;;22.42;15.50;;;16.00;99.90;;;;;;5004744;28;20053;-60
2023/06/19 04:08:29;;;;;;;24.33;16.63;;;16.00;99.90;;;;;;5006633;28;20113;-57
2023/06/19 04:10:55;;;;;;;22.45;16.80;;;16.00;99.90;;;;;;5005577;28;20448;-55
2023/06/19 04:13:22;;;;;;;19.83;16.08;;;16.00;99.90;;;;;;5006846;28;20049;-56
2023/06/19 04:15:49;;;;;;;25.85;16.73;;;16.00;99.90;;;;;;5006806;28;20539;-57
2023/06/19 04:18:17;;;;;;;25.15;17.77;;;16.00;99.90;;;;;;5004162;28;20104;-58
2023/06/19 04:20:44;;;;;;;24.30;16.83;;;16.00;99.90;;;;;;5006740;28;20050;-58
2023/06/19 04:23:10;;;;;;;23.48;17.50;;;16.10;99.90;;;;;;5006903;28;20037;-55
2023/06/19 04:25:37;;;;;;;24.38;15.77;;;16.10;99.90;;;;;;5007910;28;20190;-57
2023/06/19 04:28:04;;;;;;;24.00;16.15;;;16.00;99.90;;;;;;5010603;28;20042;-54
2023/06/19 04:30:31;;;;;;;22.88;16.60;;;16.10;99.90;;;;;;5010393;28;20265;-57
2023/06/19 04:32:58;;;;;;;22.08;16.10;;;16.10;99.90;;;;;;5011155;28;20046;-56
2023/06/19 04:35:25;;;;;;;28.02;17.15;;;16.10;99.90;;;;;;5010013;28;20145;-56
2023/06/19 04:37:53;;;;;;;22.10;17.23;;;16.10;99.90;;;;;;5010783;28;20348;-56
2023/06/19 04:40:19;;;;;;;23.05;15.88;;;16.10;99.90;;;;;;5011494;28;20112;-57
2023/06/19 04:42:46;;;;;;;24.23;16.77;;;16.20;99.90;;;;;;5010496;28;20519;-56
2023/06/19 04:45:13;;;;;;;24.23;16.20;;;16.20;99.90;;;;;;5012829;28;20517;-58
2023/06/19 04:47:40;;;;;;;27.98;18.27;;;16.20;99.90;;;;;;5010877;28;20061;-55
2023/06/19 04:50:19;;;;;;;26.70;16.42;;;16.20;99.90;;;;;;5013835;28;20646;-56
2023/06/19 04:52:50;;;;;;;27.05;17.25;;;16.20;99.90;;;;;;5010411;28;20046;-53
2023/06/19 04:55:18;;;;;;;24.20;17.30;;;16.30;99.90;;;;;;5010979;28;20054;-56
2023/06/19 04:57:44;;;;;;;30.15;18.13;;;16.30;99.90;;;;;;5009898;28;20515;-56
2023/06/19 05:00:14;;;;;;;26.88;17.42;;;16.30;99.90;;;;;;5016223;28;20045;-58
2023/06/19 05:02:43;;;;;;;24.92;16.52;;;16.30;99.90;;;;;;5010162;28;20049;-55
2023/06/19 05:05:10;;;;;;;27.20;17.48;;;16.30;99.90;;;;;;5009878;28;20038;-57
2023/06/19 05:07:37;;;;;;;27.85;17.60;;;16.40;99.90;;;;;;5010123;28;20049;-61
2023/06/19 05:10:05;;;;;;;29.70;18.38;;;16.40;99.90;;;;;;5010106;28;20049;-58
2023/06/19 05:12:31;;;;;;;29.02;17.63;;;16.40;99.90;;;;;;5009592;28;20122;-57
2023/06/19 05:14:58;;;;;;;34.55;18.83;;;16.40;99.90;;;;;;5004594;28;20053;-58
2023/06/19 05:17:25;;;;;;;26.48;16.75;;;16.50;99.90;;;;;;5009811;28;20041;-57
2023/06/19 05:19:52;;;;;;;33.00;18.63;;;16.50;99.90;;;;;;5020337;28;20049;-58
2023/06/19 05:22:21;;;;;;;30.00;18.70;;;16.60;99.90;;;;;;5009534;28;20069;-57
2023/06/19 05:24:48;;;;;;;33.60;18.25;;;16.60;99.90;;;;;;4999063;28;20055;-55
2023/06/19 05:27:15;;;;;;;27.02;17.83;;;16.60;99.90;;;;;;5008847;28;20061;-54
2023/06/19 05:29:41;;;;;;;24.25;17.73;;;16.70;99.90;;;;;;5009997;28;20046;-55
2023/06/19 05:32:08;;;;;;;24.17;17.70;;;16.70;99.90;;;;;;5009044;28;20489;-54
2023/06/19 05:34:35;;;;;;;29.90;17.70;;;16.70;99.90;;;;;;5009634;28;20061;-55
2023/06/19 05:37:03;;;;;;;30.63;18.80;;;16.80;99.90;;;;;;5008909;28;20089;-55
2023/06/19 05:39:30;;;;;;;26.85;17.90;;;16.80;99.90;;;;;;5010191;28;20483;-56
2023/06/19 05:41:57;;;;;;;28.85;17.98;;;16.90;99.90;;;;;;5008398;28;20133;-56
2023/06/19 05:44:24;;;;;;;26.27;18.23;;;16.90;99.90;;;;;;5009020;28;20050;-55
2023/06/19 05:46:50;;;;;;;28.15;19.17;;;16.90;99.90;;;;;;4659170;28;10000045;-56
2023/06/19 05:49:17;;;;;;;30.15;18.75;;;17.00;99.90;;;;;;5009509;28;20053;-54
2023/06/19 05:51:44;;;;;;;22.40;17.65;;;17.00;99.90;;;;;;5005872;28;20661;-53
2023/06/19 05:54:11;;;;;;;29.17;18.38;;;17.10;99.90;;;;;;5010232;28;20045;-56
2023/06/19 05:56:38;;;;;;;31.27;18.08;;;17.10;99.90;;;;;;5005871;28;20050;-54
2023/06/19 05:59:05;;;;;;;24.83;16.52;;;17.10;99.90;;;;;;5010550;28;20041;-57
2023/06/19 06:01:32;;;;;;;27.00;17.30;;;17.10;99.90;;;;;;5006929;28;20131;-57
2023/06/19 06:04:03;;;;;;;25.10;17.38;;;17.20;99.90;;;;;;5008778;28;20680;-53
2023/06/19 06:06:30;;;;;;;31.00;17.83;;;17.20;99.90;;;;;;5008503;28;20484;-57
2023/06/19 06:08:56;;;;;;;26.13;17.88;;;17.30;99.90;;;;;;5007788;28;20050;-59
2023/06/19 06:11:23;;;;;;;23.30;16.10;;;17.40;99.90;;;;;;5010675;28;20084;-56
2023/06/19 06:13:50;;;;;;;31.08;16.63;;;17.40;99.90;;;;;;5005526;28;20045;-57
2023/06/19 06:16:17;;;;;;;22.95;16.38;;;17.50;99.90;;;;;;5006209;28;20466;-57
2023/06/19 06:18:45;;;;;;;24.13;16.05;;;17.50;99.90;;;;;;5005501;28;20104;-57
2023/06/19 06:21:12;;;;;;;23.83;15.60;;;17.50;99.90;;;;;;5005285;28;20049;-57
2023/06/19 06:23:44;;;;;;;18.17;13.48;;;17.50;99.90;;;;;;5005727;28;20656;-59
2023/06/19 06:26:11;;;;;;;18.30;13.48;;;17.50;99.90;;;;;;5006438;28;20100;-60
2023/06/19 06:28:39;;;;;;;23.40;14.57;;;17.50;99.90;;;;;;5006930;28;20116;-59
2023/06/19 06:31:06;;;;;;;25.52;15.20;;;17.50;99.90;;;;;;5004311;28;20050;-57
2023/06/19 06:33:33;;;;;;;25.45;13.90;;;17.50;99.90;;;;;;5005174;28;20049;-55
2023/06/19 06:36:01;;;;;;;23.48;14.25;;;17.60;99.90;;;;;;5006104;28;20136;-60
2023/06/19 06:38:28;;;;;;;23.92;14.38;;;17.70;99.90;;;;;;5004530;28;20054;-57
2023/06/19 06:40:55;;;;;;;19.65;13.05;;;17.70;99.90;;;;;;5003965;28;20128;-55
2023/06/19 06:43:22;;;;;;;24.75;13.88;;;17.80;99.90;;;;;;5004566;28;20042;-56
2023/06/19 06:45:48;;;;;;;25.67;12.70;;;17.90;99.90;;;;;;5004917;28;20053;-55
2023/06/19 06:48:15;;;;;;;22.83;13.48;;;17.90;99.90;;;;;;5006031;28;20141;-56
2023/06/19 06:50:43;;;;;;;19.75;13.85;;;18.00;99.90;;;;;;5002781;28;20080;-55
2023/06/19 06:53:10;;;;;;;18.05;11.45;;;18.00;99.90;;;;;;5003891;28;20053;-54
2023/06/19 06:55:36;;;;;;;19.98;12.77;;;18.10;99.90;;;;;;5005598;28;20049;-52
2023/06/19 06:58:05;;;;;;;21.30;13.02;;;18.10;99.90;;;;;;5004067;28;20053;-59
2023/06/19 07:00:32;;;;;;;16.38;10.90;;;18.10;99.90;;;;;;5004254;28;20053;-53
2023/06/19 07:02:58;;;;;;;22.02;12.07;;;18.20;99.90;;;;;;5006882;28;20544;-56
2023/06/19 07:05:25;;;;;;;22.60;11.45;;;18.20;99.90;;;;;;5010721;28;20112;-57
2023/06/19 07:07:52;;;;;;;18.88;11.02;;;18.30;99.90;;;;;;5007481;28;20052;-56
2023/06/19 07:10:19;;;;;;;13.70;10.20;;;18.30;99.90;;;;;;5011498;28;20140;-56
2023/06/19 07:12:47;;;;;;;17.88;10.38;;;18.30;99.90;;;;;;5016198;28;20481;-57
2023/06/19 07:15:14;;;;;;;24.45;10.93;;;18.40;99.90;;;;;;5007205;28;20046;-56
2023/06/19 07:17:41;;;;;;;18.88;10.88;;;18.40;99.90;;;;;;5007840;28;20052;-57
2023/06/19 07:20:08;;;;;;;23.83;10.50;;;18.50;99.90;;;;;;5005480;28;20042;-55
2023/06/19 07:22:35;;;;;;;22.00;10.63;;;18.60;99.90;;;;;;5007660;28;20042;-56
2023/06/19 07:25:03;;;;;;;14.05;9.25;;;18.60;99.90;;;;;;5009519;28;20699;-57
2023/06/19 07:27:30;;;;;;;14.15;9.27;;;18.70;99.90;;;;;;5006761;28;20500;-55
2023/06/19 07:29:57;;;;;;;15.43;8.82;;;18.90;99.90;;;;;;4993855;28;20072;-58
2023/06/19 07:32:24;;;;;;;10.30;7.88;;;18.90;99.90;;;;;;5005325;28;20114;-57
2023/06/19 07:34:51;;;;;;;11.20;7.55;;;19.00;99.90;;;;;;5011629;28;20064;-57
2023/06/19 07:37:18;;;;;;;14.07;8.43;;;19.10;99.90;;;;;;5006099;28;20057;-56
2023/06/19 07:39:45;;;;;;;12.90;7.70;;;19.10;99.90;;;;;;5006351;28;20048;-57
2023/06/19 07:42:13;;;;;;;12.23;7.72;;;19.10;99.90;;;;;;4998390;28;20078;-57
2023/06/19 07:44:40;;;;;;;16.27;8.05;;;19.20;99.90;;;;;;5007698;28;20042;-58
2023/06/19 07:47:08;;;;;;;15.50;7.30;;;19.20;99.90;;;;;;5009057;28;20132;-55
2023/06/19 07:49:35;;;;;;;17.92;7.82;;;19.20;99.90;;;;;;4981441;28;20060;-56
2023/06/19 07:52:03;;;;;;;9.70;6.65;;;19.20;99.90;;;;;;4996464;28;20054;-56
2023/06/19 07:54:30;;;;;;;14.38;8.45;;;19.20;99.90;;;;;;5001613;28;20538;-59
2023/06/19 07:56:57;;;;;;;13.43;7.90;;;19.20;99.90;;;;;;5005222;28;20099;-56
2023/06/19 07:59:23;;;;;;;15.18;7.75;;;19.30;99.90;;;;;;4994241;28;20053;-56
2023/06/19 08:01:50;;;;;;;14.02;8.35;;;19.30;99.90;;;;;;5005958;28;20052;-55
2023/06/19 08:04:17;;;;;;;11.63;7.28;;;19.40;99.90;;;;;;4994810;28;20084;-57
2023/06/19 08:06:44;;;;;;;12.57;6.90;;;19.40;99.90;;;;;;5006303;28;20557;-56
2023/06/19 08:09:11;;;;;;;10.73;7.18;;;19.50;99.90;;;;;;5009622;28;20055;-56
2023/06/19 08:11:38;;;;;;;16.38;8.00;;;19.50;99.90;;;;;;5013179;28;20584;-55
2023/06/19 08:14:05;;;;;;;18.98;7.53;;;19.50;99.90;;;;;;5009746;28;20046;-56
2023/06/19 08:16:31;;;;;;;11.68;7.25;;;19.60;99.90;;;;;;5009789;28;20049;-58
2023/06/19 08:18:58;;;;;;;13.77;7.43;;;19.60;99.90;;;;;;4999750;28;20165;-55
2023/06/19 08:21:25;;;;;;;13.25;6.60;;;19.60;99.90;;;;;;5014069;28;20049;-56
2023/06/19 08:23:52;;;;;;;13.82;5.75;;;19.70;99.90;;;;;;5014818;28;20044;-54
2023/06/19 08:26:20;;;;;;;13.93;5.85;;;19.70;99.90;;;;;;5011552;28;20080;-58
2023/06/19 08:28:47;;;;;;;11.20;5.82;;;19.70;99.90;;;;;;4997859;28;20054;-59
2023/06/19 08:31:14;;;;;;;11.63;5.80;;;19.80;99.90;;;;;;5014269;28;20191;-57
2023/06/19 08:33:41;;;;;;;14.48;6.40;;;19.80;99.90;;;;;;5011255;28;20496;-57
2023/06/19 08:36:08;;;;;;;11.77;5.30;;;19.90;99.90;;;;;;5015813;28;20046;-56
2023/06/19 08:38:34;;;;;;;23.27;6.72;;;19.90;99.90;;;;;;5006180;28;20041;-56
2023/06/19 08:41:01;;;;;;;13.88;5.40;;;20.00;99.90;;;;;;4991342;28;20061;-56
2023/06/19 08:43:28;;;;;;;18.40;6.60;;;20.10;99.90;;;;;;5012854;28;20069;-55
2023/06/19 08:46:09;;;;;;;10.20;5.57;;;20.20;99.90;;;;;;4980683;28;20058;-57
2023/06/19 08:48:36;;;;;;;7.30;4.57;;;20.40;99.90;;;;;;5010274;28;20054;-58
2023/06/19 08:51:04;;;;;;;8.85;4.85;;;20.50;99.90;;;;;;5005231;28;20430;-56
2023/06/19 08:53:35;;;;;;;10.13;5.07;;;20.50;99.90;;;;;;5014442;28;20085;-57
2023/06/19 08:56:03;;;;;;;10.52;5.78;;;20.60;99.90;;;;;;5009706;28;20066;-58
2023/06/19 08:58:29;;;;;;;17.95;4.70;;;20.70;99.90;;;;;;4659905;28;10001378;-58
2023/06/19 09:00:59;;;;;;;11.38;5.60;;;20.70;99.90;;;;;;5010632;28;20077;-56
2023/06/19 09:03:26;;;;;;;10.15;4.85;;;20.80;99.90;;;;;;5010083;28;20053;-57
2023/06/19 09:05:53;;;;;;;11.55;5.78;;;21.00;99.90;;;;;;5011141;28;20049;-57
2023/06/19 09:08:20;;;;;;;10.73;4.78;;;21.00;99.90;;;;;;5009613;28;20516;-55
2023/06/19 09:11:00;;;;;;;14.10;5.57;;;21.10;99.90;;;;;;5008454;28;20080;-58
2023/06/19 09:13:30;;;;;;;8.38;4.60;;;21.10;99.90;;;;;;5014271;28;20049;-58
2023/06/19 09:16:07;;;;;;;9.43;4.88;;;21.20;99.90;;;;;;5015516;28;20486;-56
2023/06/19 09:18:45;;;;;;;9.00;4.60;;;21.30;99.90;;;;;;5014634;28;20045;-58
2023/06/19 09:21:18;;;;;;;10.25;4.68;;;21.40;99.90;;;;;;5016181;28;20068;-57
2023/06/19 09:23:46;;;;;;;8.10;4.53;;;21.50;99.90;;;;;;5015417;28;20057;-57
2023/06/19 09:26:16;;;;;;;8.32;4.35;;;21.40;99.90;;;;;;5013408;28;20052;-55
2023/06/19 09:28:43;;;;;;;10.00;5.38;;;21.40;99.90;;;;;;5012714;28;20489;-56
2023/06/19 09:31:10;;;;;;;9.95;4.55;;;21.40;99.90;;;;;;5013055;28;20056;-56
2023/06/19 09:33:38;;;;;;;11.10;4.50;;;21.50;99.90;;;;;;5015381;28;20077;-63
2023/06/19 09:36:06;;;;;;;10.00;5.28;;;21.40;99.90;;;;;;5016052;28;20038;-58
2023/06/19 09:38:38;;;;;;;7.88;3.58;;;21.50;99.90;;;;;;5018082;28;20057;-57
2023/06/19 09:41:05;;;;;;;11.32;4.32;;;21.60;99.90;;;;;;5013343;28;20561;-56
2023/06/19 09:43:40;;;;;;;8.90;4.07;;;21.80;99.90;;;;;;5009282;28;20054;-58
2023/06/19 09:46:07;;;;;;;8.48;4.40;;;22.00;99.90;;;;;;5006295;28;20064;-53
2023/06/19 09:48:35;;;;;;;9.60;4.95;;;22.00;99.90;;;;;;4992726;28;20046;-56
2023/06/19 09:51:17;;;;;;;8.73;4.38;;;22.10;99.90;;;;;;5008913;28;20046;-55
2023/06/19 09:53:45;;;;;;;8.68;4.47;;;22.00;99.90;;;;;;5018491;28;20386;-56
2023/06/19 09:56:13;;;;;;;10.48;4.78;;;22.10;99.90;;;;;;5018011;28;20052;-57
2023/06/19 09:58:43;;;;;;;8.70;4.50;;;22.20;99.90;;;;;;4998880;28;20047;-57
2023/06/19 10:01:11;;;;;;;7.68;4.50;;;22.10;99.90;;;;;;5014019;28;20064;-57
2023/06/19 10:03:41;;;;;;;6.68;4.20;;;22.10;99.90;;;;;;5001713;28;20485;-56
2023/06/19 10:06:13;;;;;;;11.02;4.35;;;21.90;99.90;;;;;;5016167;28;20076;-54
2023/06/19 10:08:41;;;;;;;9.07;4.88;;;21.80;99.90;;;;;;5005627;28;20087;-57
2023/06/19 10:11:07;;;;;;;14.75;4.70;;;22.00;99.90;;;;;;5013403;28;20048;-57
2023/06/19 10:13:38;;;;;;;8.68;4.38;;;22.10;99.90;;;;;;5019890;28;20402;-53
2023/06/19 10:16:05;;;;;;;9.50;4.25;;;22.10;99.90;;;;;;5012741;28;20057;-57
2023/06/19 10:18:32;;;;;;;24.13;5.18;;;22.00;99.90;;;;;;5008475;28;20057;-56
2023/06/19 10:21:00;;;;;;;7.40;4.57;;;22.20;99.90;;;;;;5008375;28;20042;-57
2023/06/19 10:23:28;;;;;;;12.88;4.63;;;22.40;99.90;;;;;;5011958;28;20482;-57
2023/06/19 10:25:59;;;;;;;7.10;4.07;;;22.30;99.90;;;;;;5015878;28;20088;-57
2023/06/19 10:28:31;;;;;;;8.13;4.18;;;22.20;99.90;;;;;;5016055;28;20132;-58
2023/06/19 10:31:00;;;;;;;8.10;3.17;;;22.30;99.90;;;;;;5011919;28;20062;-57
2023/06/19 10:33:29;;;;;;;7.85;4.05;;;22.20;99.90;;;;;;5010454;28;20568;-55
2023/06/19 10:35:56;;;;;;;6.38;3.70;;;22.30;99.90;;;;;;5013408;28;20049;-57
2023/06/19 10:38:23;;;;;;;7.07;3.50;;;22.60;99.90;;;;;;4659870;28;10000106;-55
2023/06/19 10:40:50;;;;;;;6.05;3.20;;;22.60;99.90;;;;;;5005444;28;20287;-56
2023/06/19 10:43:22;;;;;;;6.10;3.67;;;23.00;99.90;;;;;;5005167;28;20049;-57
2023/06/19 10:45:49;;;;;;;6.55;3.58;;;23.50;99.90;;;;;;5002496;28;20057;-56
2023/06/19 10:48:20;;;;;;;7.38;4.00;;;23.50;99.90;;;;;;4995209;28;20058;-57
2023/06/19 10:50:47;;;;;;;7.43;3.25;;;23.30;99.90;;;;;;5010870;28;20133;-55
2023/06/19 10:53:24;;;;;;;15.48;3.85;;;23.70;99.90;;;;;;4995748;28;20321;-57
2023/06/19 10:55:58;;;;;;;7.40;4.22;;;24.20;99.90;;;;;;5005546;28;20049;-55
2023/06/19 10:58:26;;;;;;;5.57;3.17;;;24.10;99.90;;;;;;5005119;28;20046;-57
2023/06/19 11:00:54;;;;;;;8.88;3.50;;;23.80;99.90;;;;;;5007603;28;20049;-55
2023/06/19 11:03:21;;;;;;;8.50;3.90;;;23.50;99.90;;;;;;5007643;28;20073;-58
2023/06/19 11:05:48;;;;;;;9.15;3.60;;;23.50;99.90;;;;;;5008350;28;20054;-55
2023/06/19 11:08:19;;;;;;;6.38;3.58;;;23.50;99.90;;;;;;5007476;28;20053;-58
2023/06/19 11:10:46;;;;;;;10.27;3.88;;;23.40;99.90;;;;;;5007044;28;20063;-57
2023/06/19 11:13:19;;;;;;;7.05;3.60;;;23.30;99.90;;;;;;4993354;28;20050;-56
2023/06/19 11:15:49;;;;;;;;;;;23.40;99.90;;;;;;5007308;28;20042;-54
2023/06/19 11:18:16;;;;;;;5.65;3.50;;;23.40;99.90;;;;;;5004651;28;20408;-56
2023/06/19 11:20:50;;;;;;;6.00;3.67;;;23.50;99.90;;;;;;5006014;28;20050;-56
2023/06/19 11:23:28;;;;;;;7.82;3.90;;;23.50;99.90;;;;;;5012514;28;20516;-57
2023/06/19 11:26:02;;;;;;;9.98;3.92;;;23.50;99.90;;;;;;5006344;28;20050;-57
2023/06/19 11:28:29;;;;;;;10.05;4.13;;;23.60;99.90;;;;;;5006689;28;20133;-57
2023/06/19 11:31:03;;;;;;;6.90;3.72;;;23.70;99.90;;;;;;5007889;28;20049;-59
2023/06/19 11:33:30;;;;;;;9.43;3.40;;;23.70;99.90;;;;;;5006830;28;20137;-57
2023/06/19 11:36:00;;;;;;;12.25;4.20;;;23.80;99.90;;;;;;5003156;28;20038;-57
2023/06/19 11:38:27;;;;;;;7.45;3.67;;;23.90;99.90;;;;;;5016399;28;20054;-55
2023/06/19 11:40:55;;;;;;;6.68;4.25;;;23.70;99.90;;;;;;5007529;28;20128;-56
2023/06/19 11:43:31;;;;;;;4.90;3.22;;;23.60;99.90;;;;;;5007813;28;21061;-55
2023/06/19 11:46:05;;;;;;;4.85;3.25;;;23.50;99.90;;;;;;5007700;28;20046;-55
2023/06/19 11:48:33;;;;;;;8.40;4.00;;;23.40;99.90;;;;;;5017197;28;20113;-56
2023/06/19 11:50:59;;;;;;;10.65;4.28;;;23.30;99.90;;;;;;5007582;28;20080;-55
2023/06/19 11:53:26;;;;;;;8.98;3.75;;;23.40;99.90;;;;;;5005216;28;20417;-55
2023/06/19 11:55:53;;;;;;;7.05;3.63;;;23.40;99.90;;;;;;5007433;28;20049;-57
2023/06/19 11:58:20;;;;;;;10.13;4.10;;;23.40;99.90;;;;;;5008090;28;20052;-58
2023/06/19 12:00:48;;;;;;;9.50;3.65;;;23.40;99.90;;;;;;5007135;28;20432;-60
2023/06/19 12:03:15;;;;;;;6.28;3.80;;;23.50;99.90;;;;;;5008855;28;20053;-55
2023/06/19 12:05:42;;;;;;;8.45;4.18;;;23.70;99.90;;;;;;5007226;28;20288;-55
2023/06/19 12:08:08;;;;;;;5.45;2.90;;;23.80;99.90;;;;;;5009477;28;20061;-52
2023/06/19 12:10:36;;;;;;;6.70;3.47;;;23.80;99.90;;;;;;5006849;28;20050;-57
2023/06/19 12:13:03;;;;;;;5.32;3.00;;;23.70;99.90;;;;;;5011706;28;20108;-55
2023/06/19 12:15:29;;;;;;;10.73;3.50;;;23.60;99.90;;;;;;5007510;28;20077;-53
2023/06/19 12:17:58;;;;;;;7.43;4.18;;;23.60;99.90;;;;;;5009792;28;20123;-55
2023/06/19 12:20:25;;;;;;;10.93;4.13;;;23.70;99.90;;;;;;5007168;28;20034;-57
2023/06/19 12:22:52;;;;;;;6.88;3.40;;;23.70;99.90;;;;;;5014305;28;20435;-55
2023/06/19 12:25:19;;;;;;;6.40;3.63;;;23.80;99.90;;;;;;5000680;28;20485;-54
2023/06/19 12:27:47;;;;;;;6.70;3.45;;;24.00;99.90;;;;;;5011180;28;20516;-55
2023/06/19 12:30:14;;;;;;;5.13;3.00;;;24.00;99.90;;;;;;5007009;28;20505;-57
2023/06/19 12:32:41;;;;;;;5.45;2.65;;;23.90;99.90;;;;;;4992736;28;20509;-57
2023/06/19 12:35:08;;;;;;;10.48;2.95;;;24.00;99.90;;;;;;4999184;28;20100;-56
2023/06/19 12:37:35;;;;;;;8.73;3.10;;;24.00;99.90;;;;;;5005784;28;20048;-55